sensor_id;sensor_type;location;lat;lon;timestamp;P1;durP1;ratioP1;P2;durP2;ratioP2
65996;SDS011;52765;52.258;21.052;2023-05-10T00:00:34;13.63;;;4.18;;
65996;SDS011;52765;52.258;21.052;2023-05-10T00:03:00;9.40;;;4.45;;
65996;SDS011;52765;52.258;21.052;2023-05-10T00:05:25;12.00;;;4.82;;
65996;SDS011;52765;52.258;21.052;2023-05-10T00:07:51;8.32;;;4.25;;
65996;SDS011;52765;52.258;21.052;2023-05-10T00:10:16;10.18;;;4.20;;
65996;SDS011;52765;52.258;21.052;2023-05-10T00:12:42;8.95;;;4.45;;
65996;SDS011;52765;52.258;21.052;2023-05-10T00:15:08;8.70;;;4.30;;
65996;SDS011;52765;52.258;21.052;2023-05-10T00:17:34;7.03;;;3.63;;
65996;SDS011;52765;52.258;21.052;2023-05-10T00:19:59;7.72;;;3.72;;
65996;SDS011;52765;52.258;21.052;2023-05-10T00:22:25;8.55;;;4.20;;
65996;SDS011;52765;52.258;21.052;2023-05-10T00:24:50;8.68;;;3.97;;
65996;SDS011;52765;52.258;21.052;2023-05-10T00:27:16;6.68;;;3.55;;
65996;SDS011;52765;52.258;21.052;2023-05-10T00:29:41;8.25;;;3.83;;
65996;SDS011;52765;52.258;21.052;2023-05-10T00:32:09;12.32;;;4.07;;
65996;SDS011;52765;52.258;21.052;2023-05-10T00:34:44;8.20;;;4.03;;
65996;SDS011;52765;52.258;21.052;2023-05-10T00:37:09;7.00;;;3.83;;
65996;SDS011;52765;52.258;21.052;2023-05-10T00:39:36;10.15;;;3.97;;
65996;SDS011;52765;52.258;21.052;2023-05-10T00:42:04;8.13;;;4.13;;
65996;SDS011;52765;52.258;21.052;2023-05-10T00:44:31;9.07;;;4.50;;
65996;SDS011;52765;52.258;21.052;2023-05-10T00:47:01;7.38;;;4.13;;
65996;SDS011;52765;52.258;21.052;2023-05-10T00:49:40;9.73;;;4.35;;
65996;SDS011;52765;52.258;21.052;2023-05-10T00:52:23;9.60;;;3.85;;
65996;SDS011;52765;52.258;21.052;2023-05-10T00:54:56;6.10;;;3.95;;
65996;SDS011;52765;52.258;21.052;2023-05-10T00:57:37;8.75;;;4.50;;
65996;SDS011;52765;52.258;21.052;2023-05-10T01:00:03;8.80;;;4.43;;
65996;SDS011;52765;52.258;21.052;2023-05-10T01:02:29;9.27;;;4.25;;
65996;SDS011;52765;52.258;21.052;2023-05-10T01:04:54;7.93;;;3.80;;
65996;SDS011;52765;52.258;21.052;2023-05-10T01:07:21;7.93;;;3.70;;
65996;SDS011;52765;52.258;21.052;2023-05-10T01:09:47;13.32;;;4.40;;
65996;SDS011;52765;52.258;21.052;2023-05-10T01:12:12;8.02;;;4.00;;
65996;SDS011;52765;52.258;21.052;2023-05-10T01:14:38;7.38;;;3.83;;
65996;SDS011;52765;52.258;21.052;2023-05-10T01:17:04;10.40;;;3.85;;
65996;SDS011;52765;52.258;21.052;2023-05-10T01:19:31;7.47;;;3.35;;
65996;SDS011;52765;52.258;21.052;2023-05-10T01:34:07;6.45;;;3.40;;
65996;SDS011;52765;52.258;21.052;2023-05-10T01:42:11;6.88;;;3.90;;
65996;SDS011;52765;52.258;21.052;2023-05-10T01:47:27;15.48;;;4.80;;
65996;SDS011;52765;52.258;21.052;2023-05-10T01:50:03;9.38;;;3.97;;
65996;SDS011;52765;52.258;21.052;2023-05-10T01:53:11;11.73;;;4.15;;
65996;SDS011;52765;52.258;21.052;2023-05-10T01:55:43;16.05;;;4.15;;
65996;SDS011;52765;52.258;21.052;2023-05-10T01:58:19;8.68;;;3.60;;
65996;SDS011;52765;52.258;21.052;2023-05-10T02:00:50;9.23;;;3.97;;
65996;SDS011;52765;52.258;21.052;2023-05-10T02:03:37;10.38;;;3.75;;
65996;SDS011;52765;52.258;21.052;2023-05-10T02:06:19;18.50;;;4.77;;
65996;SDS011;52765;52.258;21.052;2023-05-10T02:09:09;7.95;;;4.05;;
65996;SDS011;52765;52.258;21.052;2023-05-10T02:11:41;7.55;;;3.75;;
65996;SDS011;52765;52.258;21.052;2023-05-10T02:14:08;8.25;;;3.40;;
65996;SDS011;52765;52.258;21.052;2023-05-10T02:16:51;6.32;;;3.40;;
65996;SDS011;52765;52.258;21.052;2023-05-10T02:19:45;14.07;;;4.15;;
65996;SDS011;52765;52.258;21.052;2023-05-10T02:22:21;8.80;;;3.92;;
65996;SDS011;52765;52.258;21.052;2023-05-10T02:25:00;7.32;;;3.90;;
65996;SDS011;52765;52.258;21.052;2023-05-10T02:27:36;13.30;;;3.70;;
65996;SDS011;52765;52.258;21.052;2023-05-10T02:30:28;6.68;;;3.78;;
65996;SDS011;52765;52.258;21.052;2023-05-10T02:33:09;10.02;;;4.32;;
65996;SDS011;52765;52.258;21.052;2023-05-10T02:35:49;8.23;;;3.58;;
65996;SDS011;52765;52.258;21.052;2023-05-10T02:38:32;8.68;;;3.80;;
65996;SDS011;52765;52.258;21.052;2023-05-10T02:41:07;9.00;;;4.05;;
65996;SDS011;52765;52.258;21.052;2023-05-10T02:43:50;8.70;;;3.45;;
65996;SDS011;52765;52.258;21.052;2023-05-10T02:46:21;9.00;;;3.55;;
65996;SDS011;52765;52.258;21.052;2023-05-10T02:48:57;10.23;;;4.00;;
65996;SDS011;52765;52.258;21.052;2023-05-10T02:52:04;11.82;;;4.18;;
65996;SDS011;52765;52.258;21.052;2023-05-10T02:55:28;10.60;;;3.67;;
65996;SDS011;52765;52.258;21.052;2023-05-10T02:58:29;9.55;;;4.15;;
65996;SDS011;52765;52.258;21.052;2023-05-10T03:00:58;15.48;;;4.18;;
65996;SDS011;52765;52.258;21.052;2023-05-10T03:03:24;12.70;;;4.45;;
65996;SDS011;52765;52.258;21.052;2023-05-10T03:05:50;11.50;;;4.22;;
65996;SDS011;52765;52.258;21.052;2023-05-10T03:08:20;11.10;;;3.35;;
65996;SDS011;52765;52.258;21.052;2023-05-10T03:13:32;9.37;;;4.10;;
65996;SDS011;52765;52.258;21.052;2023-05-10T03:16:25;7.68;;;4.47;;
65996;SDS011;52765;52.258;21.052;2023-05-10T03:19:06;18.58;;;4.65;;
65996;SDS011;52765;52.258;21.052;2023-05-10T03:21:41;11.95;;;5.20;;
65996;SDS011;52765;52.258;21.052;2023-05-10T03:24:15;9.75;;;4.05;;
65996;SDS011;52765;52.258;21.052;2023-05-10T03:26:42;8.25;;;3.33;;
65996;SDS011;52765;52.258;21.052;2023-05-10T03:29:10;10.80;;;4.00;;
65996;SDS011;52765;52.258;21.052;2023-05-10T03:31:37;9.43;;;4.57;;
65996;SDS011;52765;52.258;21.052;2023-05-10T03:34:09;12.10;;;4.43;;
65996;SDS011;52765;52.258;21.052;2023-05-10T03:39:44;14.75;;;5.38;;
65996;SDS011;52765;52.258;21.052;2023-05-10T03:42:20;10.15;;;4.25;;
65996;SDS011;52765;52.258;21.052;2023-05-10T03:51:08;21.15;;;4.30;;
65996;SDS011;52765;52.258;21.052;2023-05-10T03:53:45;12.73;;;4.28;;
65996;SDS011;52765;52.258;21.052;2023-05-10T04:01:56;9.10;;;4.03;;
65996;SDS011;52765;52.258;21.052;2023-05-10T04:04:46;11.05;;;4.07;;
65996;SDS011;52765;52.258;21.052;2023-05-10T04:07:18;11.00;;;4.03;;
65996;SDS011;52765;52.258;21.052;2023-05-10T04:09:53;11.23;;;4.00;;
65996;SDS011;52765;52.258;21.052;2023-05-10T04:13:22;11.82;;;4.40;;
65996;SDS011;52765;52.258;21.052;2023-05-10T04:19:22;20.02;;;4.20;;
65996;SDS011;52765;52.258;21.052;2023-05-10T04:22:02;7.03;;;3.90;;
65996;SDS011;52765;52.258;21.052;2023-05-10T04:24:41;11.63;;;4.50;;
65996;SDS011;52765;52.258;21.052;2023-05-10T04:27:24;10.73;;;3.90;;
65996;SDS011;52765;52.258;21.052;2023-05-10T04:29:50;9.48;;;4.03;;
65996;SDS011;52765;52.258;21.052;2023-05-10T04:32:18;10.23;;;4.10;;
65996;SDS011;52765;52.258;21.052;2023-05-10T04:34:49;10.40;;;3.92;;
65996;SDS011;52765;52.258;21.052;2023-05-10T04:37:25;16.20;;;3.80;;
65996;SDS011;52765;52.258;21.052;2023-05-10T04:40:08;19.27;;;4.90;;
65996;SDS011;52765;52.258;21.052;2023-05-10T04:43:00;9.98;;;3.83;;
65996;SDS011;52765;52.258;21.052;2023-05-10T04:45:28;8.77;;;4.40;;
65996;SDS011;52765;52.258;21.052;2023-05-10T04:47:53;10.13;;;4.30;;
65996;SDS011;52765;52.258;21.052;2023-05-10T04:50:21;10.88;;;4.07;;
65996;SDS011;52765;52.258;21.052;2023-05-10T04:52:49;9.98;;;4.55;;
65996;SDS011;52765;52.258;21.052;2023-05-10T04:55:17;11.95;;;4.68;;
65996;SDS011;52765;52.258;21.052;2023-05-10T04:57:45;10.38;;;4.50;;
65996;SDS011;52765;52.258;21.052;2023-05-10T05:00:10;10.57;;;4.22;;
65996;SDS011;52765;52.258;21.052;2023-05-10T05:02:48;12.32;;;4.28;;
65996;SDS011;52765;52.258;21.052;2023-05-10T05:05:16;10.05;;;5.20;;
65996;SDS011;52765;52.258;21.052;2023-05-10T05:07:50;9.57;;;3.88;;
65996;SDS011;52765;52.258;21.052;2023-05-10T05:10:36;10.98;;;4.30;;
65996;SDS011;52765;52.258;21.052;2023-05-10T05:13:21;14.90;;;4.60;;
65996;SDS011;52765;52.258;21.052;2023-05-10T05:15:50;11.65;;;4.40;;
65996;SDS011;52765;52.258;21.052;2023-05-10T05:18:15;12.77;;;3.90;;
65996;SDS011;52765;52.258;21.052;2023-05-10T05:20:48;11.40;;;4.40;;
65996;SDS011;52765;52.258;21.052;2023-05-10T05:23:17;16.80;;;4.82;;
65996;SDS011;52765;52.258;21.052;2023-05-10T05:25:47;14.07;;;3.67;;
65996;SDS011;52765;52.258;21.052;2023-05-10T05:28:13;12.15;;;5.07;;
65996;SDS011;52765;52.258;21.052;2023-05-10T05:30:47;12.60;;;4.18;;
65996;SDS011;52765;52.258;21.052;2023-05-10T05:33:16;10.60;;;3.75;;
65996;SDS011;52765;52.258;21.052;2023-05-10T05:36:04;7.03;;;2.92;;
65996;SDS011;52765;52.258;21.052;2023-05-10T05:38:34;13.52;;;4.05;;
65996;SDS011;52765;52.258;21.052;2023-05-10T05:41:09;12.77;;;3.90;;
65996;SDS011;52765;52.258;21.052;2023-05-10T05:43:49;8.52;;;3.72;;
65996;SDS011;52765;52.258;21.052;2023-05-10T05:46:22;7.85;;;3.83;;
65996;SDS011;52765;52.258;21.052;2023-05-10T05:49:11;11.80;;;3.85;;
65996;SDS011;52765;52.258;21.052;2023-05-10T05:52:06;14.90;;;3.88;;
65996;SDS011;52765;52.258;21.052;2023-05-10T05:55:20;10.60;;;3.72;;
65996;SDS011;52765;52.258;21.052;2023-05-10T05:57:51;12.15;;;3.90;;
65996;SDS011;52765;52.258;21.052;2023-05-10T06:00:19;11.80;;;4.10;;
65996;SDS011;52765;52.258;21.052;2023-05-10T06:02:46;11.38;;;3.40;;
65996;SDS011;52765;52.258;21.052;2023-05-10T06:05:15;11.32;;;4.07;;
65996;SDS011;52765;52.258;21.052;2023-05-10T06:07:56;12.27;;;4.18;;
65996;SDS011;52765;52.258;21.052;2023-05-10T06:10:37;7.65;;;3.58;;
65996;SDS011;52765;52.258;21.052;2023-05-10T06:13:31;7.38;;;2.83;;
65996;SDS011;52765;52.258;21.052;2023-05-10T06:19:51;8.70;;;3.33;;
65996;SDS011;52765;52.258;21.052;2023-05-10T06:22:25;12.10;;;4.10;;
65996;SDS011;52765;52.258;21.052;2023-05-10T06:24:57;7.82;;;2.95;;
65996;SDS011;52765;52.258;21.052;2023-05-10T06:27:25;18.17;;;3.63;;
65996;SDS011;52765;52.258;21.052;2023-05-10T06:29:53;8.00;;;2.65;;
65996;SDS011;52765;52.258;21.052;2023-05-10T06:38:01;5.65;;;2.80;;
65996;SDS011;52765;52.258;21.052;2023-05-10T06:40:40;10.95;;;3.13;;
65996;SDS011;52765;52.258;21.052;2023-05-10T06:43:09;10.55;;;3.83;;
65996;SDS011;52765;52.258;21.052;2023-05-10T06:46:12;6.63;;;3.15;;
65996;SDS011;52765;52.258;21.052;2023-05-10T06:49:21;8.00;;;2.72;;
65996;SDS011;52765;52.258;21.052;2023-05-10T06:51:51;13.73;;;3.22;;
65996;SDS011;52765;52.258;21.052;2023-05-10T06:54:32;9.18;;;3.13;;
65996;SDS011;52765;52.258;21.052;2023-05-10T06:57:06;8.95;;;2.83;;
65996;SDS011;52765;52.258;21.052;2023-05-10T06:59:42;7.70;;;2.57;;
65996;SDS011;52765;52.258;21.052;2023-05-10T07:02:19;8.50;;;2.60;;
65996;SDS011;52765;52.258;21.052;2023-05-10T07:08:07;27.98;;;3.35;;
65996;SDS011;52765;52.258;21.052;2023-05-10T07:14:20;9.85;;;2.30;;
65996;SDS011;52765;52.258;21.052;2023-05-10T07:17:01;7.10;;;2.30;;
65996;SDS011;52765;52.258;21.052;2023-05-10T07:20:08;10.85;;;2.55;;
65996;SDS011;52765;52.258;21.052;2023-05-10T07:22:58;6.68;;;2.40;;
65996;SDS011;52765;52.258;21.052;2023-05-10T07:25:45;5.68;;;2.83;;
65996;SDS011;52765;52.258;21.052;2023-05-10T07:28:37;12.30;;;3.15;;
65996;SDS011;52765;52.258;21.052;2023-05-10T07:31:54;10.00;;;2.67;;
65996;SDS011;52765;52.258;21.052;2023-05-10T07:34:49;7.68;;;2.45;;
65996;SDS011;52765;52.258;21.052;2023-05-10T07:37:35;7.95;;;2.10;;
65996;SDS011;52765;52.258;21.052;2023-05-10T07:40:53;5.35;;;2.10;;
65996;SDS011;52765;52.258;21.052;2023-05-10T07:43:27;5.47;;;1.85;;
65996;SDS011;52765;52.258;21.052;2023-05-10T07:46:47;16.73;;;2.53;;
65996;SDS011;52765;52.258;21.052;2023-05-10T07:52:55;4.80;;;2.17;;
65996;SDS011;52765;52.258;21.052;2023-05-10T07:55:30;3.80;;;2.17;;
65996;SDS011;52765;52.258;21.052;2023-05-10T08:01:29;10.52;;;2.20;;
65996;SDS011;52765;52.258;21.052;2023-05-10T08:04:11;6.82;;;2.10;;
65996;SDS011;52765;52.258;21.052;2023-05-10T08:06:49;18.50;;;2.90;;
65996;SDS011;52765;52.258;21.052;2023-05-10T08:09:15;13.15;;;2.67;;
65996;SDS011;52765;52.258;21.052;2023-05-10T08:12:07;15.82;;;2.80;;
65996;SDS011;52765;52.258;21.052;2023-05-10T08:18:03;7.55;;;2.05;;
65996;SDS011;52765;52.258;21.052;2023-05-10T08:20:42;8.45;;;2.97;;
65996;SDS011;52765;52.258;21.052;2023-05-10T08:23:07;6.80;;;2.55;;
65996;SDS011;52765;52.258;21.052;2023-05-10T08:25:34;15.35;;;2.33;;
65996;SDS011;52765;52.258;21.052;2023-05-10T08:28:02;5.72;;;1.75;;
65996;SDS011;52765;52.258;21.052;2023-05-10T08:30:35;8.77;;;2.33;;
65996;SDS011;52765;52.258;21.052;2023-05-10T08:54:46;9.18;;;2.35;;
65996;SDS011;52765;52.258;21.052;2023-05-10T08:57:35;8.45;;;2.35;;
65996;SDS011;52765;52.258;21.052;2023-05-10T09:04:01;8.88;;;2.25;;
65996;SDS011;52765;52.258;21.052;2023-05-10T09:10:10;6.88;;;2.35;;
65996;SDS011;52765;52.258;21.052;2023-05-10T09:12:39;6.40;;;2.40;;
65996;SDS011;52765;52.258;21.052;2023-05-10T09:15:18;10.73;;;2.80;;
65996;SDS011;52765;52.258;21.052;2023-05-10T09:17:52;5.72;;;2.13;;
65996;SDS011;52765;52.258;21.052;2023-05-10T09:20:32;12.35;;;2.60;;
65996;SDS011;52765;52.258;21.052;2023-05-10T09:23:29;13.75;;;2.55;;
65996;SDS011;52765;52.258;21.052;2023-05-10T09:26:22;9.20;;;2.63;;
65996;SDS011;52765;52.258;21.052;2023-05-10T09:32:02;9.85;;;2.40;;
65996;SDS011;52765;52.258;21.052;2023-05-10T09:35:06;12.02;;;2.45;;
65996;SDS011;52765;52.258;21.052;2023-05-10T09:38:25;7.68;;;2.05;;
65996;SDS011;52765;52.258;21.052;2023-05-10T09:41:46;8.43;;;2.25;;
65996;SDS011;52765;52.258;21.052;2023-05-10T09:44:47;12.23;;;3.35;;
65996;SDS011;52765;52.258;21.052;2023-05-10T09:54:14;12.05;;;2.80;;
65996;SDS011;52765;52.258;21.052;2023-05-10T10:00:34;5.65;;;2.42;;
65996;SDS011;52765;52.258;21.052;2023-05-10T10:06:47;11.32;;;2.30;;
65996;SDS011;52765;52.258;21.052;2023-05-10T10:09:45;8.90;;;3.50;;
65996;SDS011;52765;52.258;21.052;2023-05-10T10:12:25;8.27;;;2.17;;
65996;SDS011;52765;52.258;21.052;2023-05-10T10:16:05;11.82;;;2.42;;
65996;SDS011;52765;52.258;21.052;2023-05-10T10:18:57;4.78;;;2.17;;
65996;SDS011;52765;52.258;21.052;2023-05-10T10:25:28;7.13;;;2.53;;
65996;SDS011;52765;52.258;21.052;2023-05-10T10:34:45;5.80;;;2.22;;
65996;SDS011;52765;52.258;21.052;2023-05-10T10:38:03;4.63;;;2.40;;
65996;SDS011;52765;52.258;21.052;2023-05-10T10:47:44;8.77;;;1.90;;
65996;SDS011;52765;52.258;21.052;2023-05-10T10:50:43;5.57;;;2.00;;
65996;SDS011;52765;52.258;21.052;2023-05-10T10:53:50;4.35;;;1.83;;
65996;SDS011;52765;52.258;21.052;2023-05-10T10:56:22;12.73;;;2.50;;
65996;SDS011;52765;52.258;21.052;2023-05-10T11:11:24;7.05;;;1.80;;
65996;SDS011;52765;52.258;21.052;2023-05-10T11:20:27;11.25;;;2.72;;
65996;SDS011;52765;52.258;21.052;2023-05-10T11:22:58;5.80;;;2.20;;
65996;SDS011;52765;52.258;21.052;2023-05-10T11:25:41;8.60;;;2.25;;
65996;SDS011;52765;52.258;21.052;2023-05-10T11:28:08;11.93;;;2.13;;
65996;SDS011;52765;52.258;21.052;2023-05-10T11:30:33;20.20;;;2.92;;
65996;SDS011;52765;52.258;21.052;2023-05-10T11:32:59;8.23;;;2.40;;
65996;SDS011;52765;52.258;21.052;2023-05-10T11:35:27;4.10;;;2.00;;
65996;SDS011;52765;52.258;21.052;2023-05-10T11:37:52;11.98;;;2.35;;
65996;SDS011;52765;52.258;21.052;2023-05-10T11:40:18;3.90;;;1.85;;
65996;SDS011;52765;52.258;21.052;2023-05-10T11:42:44;7.05;;;2.17;;
65996;SDS011;52765;52.258;21.052;2023-05-10T11:45:10;11.48;;;2.58;;
65996;SDS011;52765;52.258;21.052;2023-05-10T11:47:36;13.60;;;2.60;;
65996;SDS011;52765;52.258;21.052;2023-05-10T11:50:02;14.90;;;2.70;;
65996;SDS011;52765;52.258;21.052;2023-05-10T11:52:28;10.35;;;2.00;;
65996;SDS011;52765;52.258;21.052;2023-05-10T11:54:54;10.38;;;2.80;;
65996;SDS011;52765;52.258;21.052;2023-05-10T11:57:20;9.32;;;2.33;;
65996;SDS011;52765;52.258;21.052;2023-05-10T11:59:54;7.15;;;2.95;;
65996;SDS011;52765;52.258;21.052;2023-05-10T12:02:22;10.73;;;2.80;;
65996;SDS011;52765;52.258;21.052;2023-05-10T12:04:48;8.10;;;2.22;;
65996;SDS011;52765;52.258;21.052;2023-05-10T12:07:15;9.60;;;2.33;;
65996;SDS011;52765;52.258;21.052;2023-05-10T12:09:44;5.18;;;2.15;;
65996;SDS011;52765;52.258;21.052;2023-05-10T12:12:10;6.50;;;2.40;;
65996;SDS011;52765;52.258;21.052;2023-05-10T12:14:41;8.43;;;2.63;;
65996;SDS011;52765;52.258;21.052;2023-05-10T12:17:13;17.23;;;2.63;;
65996;SDS011;52765;52.258;21.052;2023-05-10T12:19:39;12.32;;;3.03;;
65996;SDS011;52765;52.258;21.052;2023-05-10T12:22:05;7.47;;;2.20;;
65996;SDS011;52765;52.258;21.052;2023-05-10T12:24:33;7.75;;;1.92;;
65996;SDS011;52765;52.258;21.052;2023-05-10T12:26:59;12.15;;;2.75;;
65996;SDS011;52765;52.258;21.052;2023-05-10T12:29:29;11.45;;;2.10;;
65996;SDS011;52765;52.258;21.052;2023-05-10T12:31:56;6.10;;;2.28;;
65996;SDS011;52765;52.258;21.052;2023-05-10T12:34:29;8.43;;;2.40;;
65996;SDS011;52765;52.258;21.052;2023-05-10T12:37:03;12.98;;;2.15;;
65996;SDS011;52765;52.258;21.052;2023-05-10T12:39:42;8.38;;;2.60;;
65996;SDS011;52765;52.258;21.052;2023-05-10T12:42:08;5.45;;;2.00;;
65996;SDS011;52765;52.258;21.052;2023-05-10T12:44:34;6.63;;;2.03;;
65996;SDS011;52765;52.258;21.052;2023-05-10T12:46:59;8.38;;;2.55;;
65996;SDS011;52765;52.258;21.052;2023-05-10T12:49:25;7.65;;;2.80;;
65996;SDS011;52765;52.258;21.052;2023-05-10T12:51:50;7.47;;;1.98;;
65996;SDS011;52765;52.258;21.052;2023-05-10T12:54:16;5.32;;;2.30;;
65996;SDS011;52765;52.258;21.052;2023-05-10T12:56:41;3.53;;;1.70;;
65996;SDS011;52765;52.258;21.052;2023-05-10T12:59:07;6.97;;;2.10;;
65996;SDS011;52765;52.258;21.052;2023-05-10T13:01:33;6.13;;;2.58;;
65996;SDS011;52765;52.258;21.052;2023-05-10T13:03:58;17.75;;;2.95;;
65996;SDS011;52765;52.258;21.052;2023-05-10T13:06:25;9.60;;;2.80;;
65996;SDS011;52765;52.258;21.052;2023-05-10T13:08:50;4.93;;;2.50;;
65996;SDS011;52765;52.258;21.052;2023-05-10T13:11:16;5.93;;;2.17;;
65996;SDS011;52765;52.258;21.052;2023-05-10T13:13:44;8.20;;;3.00;;
65996;SDS011;52765;52.258;21.052;2023-05-10T13:16:10;8.77;;;2.00;;
65996;SDS011;52765;52.258;21.052;2023-05-10T13:18:35;8.02;;;2.40;;
65996;SDS011;52765;52.258;21.052;2023-05-10T13:21:01;9.18;;;2.38;;
65996;SDS011;52765;52.258;21.052;2023-05-10T13:23:28;5.68;;;2.17;;
65996;SDS011;52765;52.258;21.052;2023-05-10T13:25:54;4.78;;;2.38;;
65996;SDS011;52765;52.258;21.052;2023-05-10T13:28:19;5.78;;;2.33;;
65996;SDS011;52765;52.258;21.052;2023-05-10T13:30:45;4.70;;;2.03;;
65996;SDS011;52765;52.258;21.052;2023-05-10T13:33:11;11.32;;;2.60;;
65996;SDS011;52765;52.258;21.052;2023-05-10T13:35:36;3.78;;;2.20;;
65996;SDS011;52765;52.258;21.052;2023-05-10T13:38:01;7.65;;;2.40;;
65996;SDS011;52765;52.258;21.052;2023-05-10T13:40:27;5.20;;;1.92;;
65996;SDS011;52765;52.258;21.052;2023-05-10T13:42:53;11.57;;;2.97;;
65996;SDS011;52765;52.258;21.052;2023-05-10T13:45:21;6.47;;;3.10;;
65996;SDS011;52765;52.258;21.052;2023-05-10T13:47:49;9.55;;;2.50;;
65996;SDS011;52765;52.258;21.052;2023-05-10T13:50:15;9.75;;;2.08;;
65996;SDS011;52765;52.258;21.052;2023-05-10T13:52:43;5.65;;;2.03;;
65996;SDS011;52765;52.258;21.052;2023-05-10T13:55:12;5.63;;;1.98;;
65996;SDS011;52765;52.258;21.052;2023-05-10T13:57:38;8.18;;;2.10;;
65996;SDS011;52765;52.258;21.052;2023-05-10T14:00:03;7.55;;;1.77;;
65996;SDS011;52765;52.258;21.052;2023-05-10T14:02:29;8.20;;;2.45;;
65996;SDS011;52765;52.258;21.052;2023-05-10T14:04:55;5.53;;;2.20;;
65996;SDS011;52765;52.258;21.052;2023-05-10T14:07:20;9.55;;;2.83;;
65996;SDS011;52765;52.258;21.052;2023-05-10T14:09:46;5.95;;;2.58;;
65996;SDS011;52765;52.258;21.052;2023-05-10T14:12:12;5.68;;;2.00;;
65996;SDS011;52765;52.258;21.052;2023-05-10T14:14:39;5.72;;;2.00;;
65996;SDS011;52765;52.258;21.052;2023-05-10T14:17:05;7.90;;;2.65;;
65996;SDS011;52765;52.258;21.052;2023-05-10T14:19:30;14.10;;;3.20;;
65996;SDS011;52765;52.258;21.052;2023-05-10T14:21:57;10.20;;;2.97;;
65996;SDS011;52765;52.258;21.052;2023-05-10T14:24:22;7.57;;;2.13;;
65996;SDS011;52765;52.258;21.052;2023-05-10T14:26:48;4.78;;;2.15;;
65996;SDS011;52765;52.258;21.052;2023-05-10T14:29:13;5.57;;;2.63;;
65996;SDS011;52765;52.258;21.052;2023-05-10T14:31:39;10.75;;;2.75;;
65996;SDS011;52765;52.258;21.052;2023-05-10T14:34:05;3.33;;;2.00;;
65996;SDS011;52765;52.258;21.052;2023-05-10T14:36:30;5.68;;;3.15;;
65996;SDS011;52765;52.258;21.052;2023-05-10T14:38:56;9.70;;;2.75;;
65996;SDS011;52765;52.258;21.052;2023-05-10T14:41:24;5.45;;;1.90;;
65996;SDS011;52765;52.258;21.052;2023-05-10T14:43:49;6.30;;;2.25;;
65996;SDS011;52765;52.258;21.052;2023-05-10T14:46:15;7.75;;;2.20;;
65996;SDS011;52765;52.258;21.052;2023-05-10T14:48:40;4.25;;;2.17;;
65996;SDS011;52765;52.258;21.052;2023-05-10T14:51:06;6.20;;;2.38;;
65996;SDS011;52765;52.258;21.052;2023-05-10T14:53:31;7.05;;;3.20;;
65996;SDS011;52765;52.258;21.052;2023-05-10T14:55:57;6.43;;;2.53;;
65996;SDS011;52765;52.258;21.052;2023-05-10T14:58:45;8.48;;;3.90;;
65996;SDS011;52765;52.258;21.052;2023-05-10T15:01:18;5.63;;;2.28;;
65996;SDS011;52765;52.258;21.052;2023-05-10T15:03:44;6.50;;;2.47;;
65996;SDS011;52765;52.258;21.052;2023-05-10T15:06:09;8.77;;;4.82;;
65996;SDS011;52765;52.258;21.052;2023-05-10T15:08:35;9.77;;;2.67;;
65996;SDS011;52765;52.258;21.052;2023-05-10T15:11:01;9.85;;;2.30;;
65996;SDS011;52765;52.258;21.052;2023-05-10T15:13:26;8.43;;;2.10;;
65996;SDS011;52765;52.258;21.052;2023-05-10T15:15:52;4.25;;;1.85;;
65996;SDS011;52765;52.258;21.052;2023-05-10T15:18:17;8.20;;;1.73;;
65996;SDS011;52765;52.258;21.052;2023-05-10T15:20:42;5.93;;;2.15;;
65996;SDS011;52765;52.258;21.052;2023-05-10T15:23:08;7.13;;;2.22;;
65996;SDS011;52765;52.258;21.052;2023-05-10T15:25:33;8.15;;;2.15;;
65996;SDS011;52765;52.258;21.052;2023-05-10T15:28:00;4.93;;;2.05;;
65996;SDS011;52765;52.258;21.052;2023-05-10T15:30:27;4.55;;;2.25;;
65996;SDS011;52765;52.258;21.052;2023-05-10T15:32:52;12.05;;;2.90;;
65996;SDS011;52765;52.258;21.052;2023-05-10T15:35:18;7.57;;;2.85;;
65996;SDS011;52765;52.258;21.052;2023-05-10T15:37:43;7.53;;;2.40;;
65996;SDS011;52765;52.258;21.052;2023-05-10T15:40:11;2.67;;;1.73;;
65996;SDS011;52765;52.258;21.052;2023-05-10T15:42:36;6.32;;;2.13;;
65996;SDS011;52765;52.258;21.052;2023-05-10T15:45:02;5.07;;;2.40;;
65996;SDS011;52765;52.258;21.052;2023-05-10T15:47:29;9.75;;;2.60;;
65996;SDS011;52765;52.258;21.052;2023-05-10T15:49:55;4.00;;;1.98;;
65996;SDS011;52765;52.258;21.052;2023-05-10T15:52:20;6.40;;;1.70;;
65996;SDS011;52765;52.258;21.052;2023-05-10T15:54:47;3.03;;;1.80;;
65996;SDS011;52765;52.258;21.052;2023-05-10T15:57:12;8.48;;;2.35;;
65996;SDS011;52765;52.258;21.052;2023-05-10T15:59:38;6.45;;;2.50;;
65996;SDS011;52765;52.258;21.052;2023-05-10T16:02:03;7.28;;;2.20;;
65996;SDS011;52765;52.258;21.052;2023-05-10T16:04:29;4.13;;;1.80;;
65996;SDS011;52765;52.258;21.052;2023-05-10T16:06:54;5.72;;;1.67;;
65996;SDS011;52765;52.258;21.052;2023-05-10T16:09:20;9.90;;;2.30;;
65996;SDS011;52765;52.258;21.052;2023-05-10T16:11:46;9.38;;;2.03;;
65996;SDS011;52765;52.258;21.052;2023-05-10T16:14:11;7.95;;;2.10;;
65996;SDS011;52765;52.258;21.052;2023-05-10T16:16:37;13.15;;;2.05;;
65996;SDS011;52765;52.258;21.052;2023-05-10T16:19:02;5.05;;;1.67;;
65996;SDS011;52765;52.258;21.052;2023-05-10T16:21:31;8.23;;;2.55;;
65996;SDS011;52765;52.258;21.052;2023-05-10T16:23:57;4.70;;;1.73;;
65996;SDS011;52765;52.258;21.052;2023-05-10T16:26:23;3.83;;;2.30;;
65996;SDS011;52765;52.258;21.052;2023-05-10T16:28:49;6.63;;;1.63;;
65996;SDS011;52765;52.258;21.052;2023-05-10T16:31:15;7.90;;;2.38;;
65996;SDS011;52765;52.258;21.052;2023-05-10T16:33:42;5.97;;;2.10;;
65996;SDS011;52765;52.258;21.052;2023-05-10T16:36:07;8.50;;;2.28;;
65996;SDS011;52765;52.258;21.052;2023-05-10T16:38:35;6.40;;;2.45;;
65996;SDS011;52765;52.258;21.052;2023-05-10T16:41:01;6.43;;;1.70;;
65996;SDS011;52765;52.258;21.052;2023-05-10T16:43:27;13.73;;;2.58;;
65996;SDS011;52765;52.258;21.052;2023-05-10T16:45:54;5.63;;;1.67;;
65996;SDS011;52765;52.258;21.052;2023-05-10T16:48:19;5.50;;;1.80;;
65996;SDS011;52765;52.258;21.052;2023-05-10T16:50:57;7.57;;;2.45;;
65996;SDS011;52765;52.258;21.052;2023-05-10T16:53:22;10.15;;;2.75;;
65996;SDS011;52765;52.258;21.052;2023-05-10T16:55:48;9.10;;;2.05;;
65996;SDS011;52765;52.258;21.052;2023-05-10T16:58:13;4.50;;;1.90;;
65996;SDS011;52765;52.258;21.052;2023-05-10T17:00:39;5.18;;;2.38;;
65996;SDS011;52765;52.258;21.052;2023-05-10T17:03:04;4.53;;;2.33;;
65996;SDS011;52765;52.258;21.052;2023-05-10T17:05:30;7.38;;;2.40;;
65996;SDS011;52765;52.258;21.052;2023-05-10T17:07:55;6.47;;;1.90;;
65996;SDS011;52765;52.258;21.052;2023-05-10T17:10:21;12.57;;;2.25;;
65996;SDS011;52765;52.258;21.052;2023-05-10T17:12:46;11.30;;;2.10;;
65996;SDS011;52765;52.258;21.052;2023-05-10T17:15:12;5.75;;;1.98;;
65996;SDS011;52765;52.258;21.052;2023-05-10T17:17:40;6.97;;;2.20;;
65996;SDS011;52765;52.258;21.052;2023-05-10T17:20:06;6.97;;;1.88;;
65996;SDS011;52765;52.258;21.052;2023-05-10T17:22:32;5.68;;;1.67;;
65996;SDS011;52765;52.258;21.052;2023-05-10T17:24:57;7.45;;;2.00;;
65996;SDS011;52765;52.258;21.052;2023-05-10T17:27:23;7.45;;;2.17;;
65996;SDS011;52765;52.258;21.052;2023-05-10T17:29:48;7.57;;;3.50;;
65996;SDS011;52765;52.258;21.052;2023-05-10T17:32:14;7.45;;;2.00;;
65996;SDS011;52765;52.258;21.052;2023-05-10T17:34:39;9.65;;;2.70;;
65996;SDS011;52765;52.258;21.052;2023-05-10T17:37:06;4.90;;;1.95;;